sensor_id;sensor_type;location;lat;lon;timestamp;P1;durP1;ratioP1;P2;durP2;ratioP2
17852;SDS011;9052;53.494;14.376;2024-03-23T00:54:46;25.67;;;6.97;;
17852;SDS011;9052;53.494;14.376;2024-03-23T00:57:12;28.60;;;5.20;;
17852;SDS011;9052;53.494;14.376;2024-03-23T00:59:39;15.43;;;6.63;;
17852;SDS011;9052;53.494;14.376;2024-03-23T01:02:05;21.43;;;5.77;;
17852;SDS011;9052;53.494;14.376;2024-03-23T01:04:32;20.40;;;4.90;;
17852;SDS011;9052;53.494;14.376;2024-03-23T01:06:58;16.57;;;6.40;;
17852;SDS011;9052;53.494;14.376;2024-03-23T01:09:25;19.17;;;4.90;;
17852;SDS011;9052;53.494;14.376;2024-03-23T01:11:52;17.20;;;5.53;;
17852;SDS011;9052;53.494;14.376;2024-03-23T01:14:20;39.70;;;5.70;;
17852;SDS011;9052;53.494;14.376;2024-03-23T01:16:46;15.87;;;5.20;;
17852;SDS011;9052;53.494;14.376;2024-03-23T01:19:15;25.27;;;5.90;;
17852;SDS011;9052;53.494;14.376;2024-03-23T01:21:41;13.77;;;5.50;;
17852;SDS011;9052;53.494;14.376;2024-03-23T01:24:09;17.63;;;5.80;;
17852;SDS011;9052;53.494;14.376;2024-03-23T01:26:36;41.07;;;6.23;;
17852;SDS011;9052;53.494;14.376;2024-03-23T01:29:04;26.40;;;5.43;;
17852;SDS011;9052;53.494;14.376;2024-03-23T01:31:30;18.00;;;5.97;;
17852;SDS011;9052;53.494;14.376;2024-03-23T01:33:58;25.00;;;5.67;;
17852;SDS011;9052;53.494;14.376;2024-03-23T01:36:24;28.70;;;6.57;;
17852;SDS011;9052;53.494;14.376;2024-03-23T01:38:51;25.20;;;5.13;;
17852;SDS011;9052;53.494;14.376;2024-03-23T01:41:17;18.53;;;5.53;;
17852;SDS011;9052;53.494;14.376;2024-03-23T01:43:44;26.33;;;6.50;;
17852;SDS011;9052;53.494;14.376;2024-03-23T01:46:11;24.17;;;6.90;;
17852;SDS011;9052;53.494;14.376;2024-03-23T01:48:39;15.10;;;5.30;;
17852;SDS011;9052;53.494;14.376;2024-03-23T01:51:04;29.73;;;7.27;;
17852;SDS011;9052;53.494;14.376;2024-03-23T01:53:31;34.93;;;6.53;;
17852;SDS011;9052;53.494;14.376;2024-03-23T01:55:57;44.90;;;6.20;;
17852;SDS011;9052;53.494;14.376;2024-03-23T01:58:25;19.73;;;5.73;;
17852;SDS011;9052;53.494;14.376;2024-03-23T02:00:50;31.07;;;5.87;;
17852;SDS011;9052;53.494;14.376;2024-03-23T02:03:25;20.87;;;5.57;;
17852;SDS011;9052;53.494;14.376;2024-03-23T02:05:51;36.10;;;6.87;;
17852;SDS011;9052;53.494;14.376;2024-03-23T02:08:20;24.13;;;5.80;;
17852;SDS011;9052;53.494;14.376;2024-03-23T02:10:47;25.60;;;6.43;;
17852;SDS011;9052;53.494;14.376;2024-03-23T02:13:14;27.53;;;5.47;;
17852;SDS011;9052;53.494;14.376;2024-03-23T02:15:40;22.00;;;6.97;;
17852;SDS011;9052;53.494;14.376;2024-03-23T02:18:08;33.13;;;5.60;;
17852;SDS011;9052;53.494;14.376;2024-03-23T02:20:35;18.27;;;4.60;;
17852;SDS011;9052;53.494;14.376;2024-03-23T02:23:04;26.93;;;7.40;;
17852;SDS011;9052;53.494;14.376;2024-03-23T02:25:31;16.33;;;5.43;;
17852;SDS011;9052;53.494;14.376;2024-03-23T02:27:58;27.80;;;6.10;;
17852;SDS011;9052;53.494;14.376;2024-03-23T02:30:24;44.70;;;7.27;;
17852;SDS011;9052;53.494;14.376;2024-03-23T02:32:51;35.07;;;7.73;;
17852;SDS011;9052;53.494;14.376;2024-03-23T02:35:17;33.40;;;6.60;;
17852;SDS011;9052;53.494;14.376;2024-03-23T02:37:45;20.77;;;5.67;;
17852;SDS011;9052;53.494;14.376;2024-03-23T02:40:13;37.53;;;5.90;;
17852;SDS011;9052;53.494;14.376;2024-03-23T02:42:40;27.70;;;6.87;;
17852;SDS011;9052;53.494;14.376;2024-03-23T02:45:06;33.43;;;6.70;;
17852;SDS011;9052;53.494;14.376;2024-03-23T02:47:33;42.53;;;7.07;;
17852;SDS011;9052;53.494;14.376;2024-03-23T02:49:59;15.17;;;5.47;;
17852;SDS011;9052;53.494;14.376;2024-03-23T02:52:26;49.63;;;6.83;;
17852;SDS011;9052;53.494;14.376;2024-03-23T02:54:52;32.90;;;5.73;;
17852;SDS011;9052;53.494;14.376;2024-03-23T02:57:20;42.00;;;6.63;;
17852;SDS011;9052;53.494;14.376;2024-03-23T02:59:47;22.63;;;6.20;;
17852;SDS011;9052;53.494;14.376;2024-03-23T03:02:14;29.57;;;5.77;;
17852;SDS011;9052;53.494;14.376;2024-03-23T03:04:41;17.23;;;5.30;;
17852;SDS011;9052;53.494;14.376;2024-03-23T03:07:08;23.50;;;5.60;;
17852;SDS011;9052;53.494;14.376;2024-03-23T03:09:34;28.10;;;6.10;;
17852;SDS011;9052;53.494;14.376;2024-03-23T03:12:01;30.03;;;6.93;;
17852;SDS011;9052;53.494;14.376;2024-03-23T03:14:28;40.53;;;6.03;;
17852;SDS011;9052;53.494;14.376;2024-03-23T03:16:55;19.10;;;5.87;;
17852;SDS011;9052;53.494;14.376;2024-03-23T03:19:21;29.60;;;5.90;;
17852;SDS011;9052;53.494;14.376;2024-03-23T03:21:48;46.10;;;6.53;;
17852;SDS011;9052;53.494;14.376;2024-03-23T03:24:14;24.03;;;5.37;;
17852;SDS011;9052;53.494;14.376;2024-03-23T03:26:42;42.53;;;7.30;;
17852;SDS011;9052;53.494;14.376;2024-03-23T03:29:08;29.90;;;5.40;;
17852;SDS011;9052;53.494;14.376;2024-03-23T03:31:36;29.17;;;6.30;;
17852;SDS011;9052;53.494;14.376;2024-03-23T03:34:02;17.47;;;6.20;;
17852;SDS011;9052;53.494;14.376;2024-03-23T03:36:29;40.40;;;6.73;;
17852;SDS011;9052;53.494;14.376;2024-03-23T03:38:55;32.73;;;4.80;;
17852;SDS011;9052;53.494;14.376;2024-03-23T03:41:22;23.67;;;5.53;;
17852;SDS011;9052;53.494;14.376;2024-03-23T03:43:49;32.30;;;6.10;;
17852;SDS011;9052;53.494;14.376;2024-03-23T03:46:15;20.80;;;5.60;;
17852;SDS011;9052;53.494;14.376;2024-03-23T03:48:43;42.77;;;6.47;;
17852;SDS011;9052;53.494;14.376;2024-03-23T03:51:10;35.77;;;6.20;;
17852;SDS011;9052;53.494;14.376;2024-03-23T03:53:37;27.83;;;6.73;;
17852;SDS011;9052;53.494;14.376;2024-03-23T03:56:03;26.23;;;6.40;;
17852;SDS011;9052;53.494;14.376;2024-03-23T03:58:30;36.17;;;6.60;;
17852;SDS011;9052;53.494;14.376;2024-03-23T04:00:56;34.80;;;6.80;;
17852;SDS011;9052;53.494;14.376;2024-03-23T04:03:23;24.80;;;5.43;;
17852;SDS011;9052;53.494;14.376;2024-03-23T04:05:53;44.77;;;6.93;;
17852;SDS011;9052;53.494;14.376;2024-03-23T04:08:21;43.87;;;6.30;;
17852;SDS011;9052;53.494;14.376;2024-03-23T04:10:47;25.80;;;6.87;;
17852;SDS011;9052;53.494;14.376;2024-03-23T04:13:14;29.20;;;6.30;;
17852;SDS011;9052;53.494;14.376;2024-03-23T04:15:40;24.27;;;5.20;;
17852;SDS011;9052;53.494;14.376;2024-03-23T04:18:07;25.30;;;5.40;;
17852;SDS011;9052;53.494;14.376;2024-03-23T04:20:33;38.97;;;6.17;;
17852;SDS011;9052;53.494;14.376;2024-03-23T04:23:02;36.90;;;5.30;;
17852;SDS011;9052;53.494;14.376;2024-03-23T04:25:28;23.67;;;6.57;;
17852;SDS011;9052;53.494;14.376;2024-03-23T04:27:56;33.03;;;5.87;;
17852;SDS011;9052;53.494;14.376;2024-03-23T04:30:22;20.90;;;4.50;;
17852;SDS011;9052;53.494;14.376;2024-03-23T04:32:50;40.10;;;5.30;;
17852;SDS011;9052;53.494;14.376;2024-03-23T04:35:16;10.10;;;5.63;;
17852;SDS011;9052;53.494;14.376;2024-03-23T04:37:45;21.10;;;5.17;;
17852;SDS011;9052;53.494;14.376;2024-03-23T04:40:13;16.70;;;4.67;;
17852;SDS011;9052;53.494;14.376;2024-03-23T04:42:40;21.37;;;5.80;;
17852;SDS011;9052;53.494;14.376;2024-03-23T04:45:08;18.03;;;5.33;;
17852;SDS011;9052;53.494;14.376;2024-03-23T04:47:35;22.17;;;5.90;;
17852;SDS011;9052;53.494;14.376;2024-03-23T04:50:03;30.30;;;5.83;;
17852;SDS011;9052;53.494;14.376;2024-03-23T04:52:29;35.20;;;6.13;;
17852;SDS011;9052;53.494;14.376;2024-03-23T04:54:56;18.10;;;5.97;;
17852;SDS011;9052;53.494;14.376;2024-03-23T04:57:25;24.63;;;6.07;;
17852;SDS011;9052;53.494;14.376;2024-03-23T04:59:51;24.40;;;6.00;;
17852;SDS011;9052;53.494;14.376;2024-03-23T05:02:18;24.57;;;5.73;;
17852;SDS011;9052;53.494;14.376;2024-03-23T05:04:44;37.53;;;7.07;;
17852;SDS011;9052;53.494;14.376;2024-03-23T05:07:11;28.43;;;5.33;;
17852;SDS011;9052;53.494;14.376;2024-03-23T05:09:36;16.43;;;5.83;;
17852;SDS011;9052;53.494;14.376;2024-03-23T05:12:04;38.43;;;6.27;;
17852;SDS011;9052;53.494;14.376;2024-03-23T05:14:32;23.43;;;5.80;;
17852;SDS011;9052;53.494;14.376;2024-03-23T05:16:59;25.37;;;6.60;;
17852;SDS011;9052;53.494;14.376;2024-03-23T05:19:28;22.30;;;6.00;;
17852;SDS011;9052;53.494;14.376;2024-03-23T05:21:55;24.40;;;7.17;;
17852;SDS011;9052;53.494;14.376;2024-03-23T05:24:21;28.93;;;6.60;;
17852;SDS011;9052;53.494;14.376;2024-03-23T05:26:48;42.63;;;7.27;;
17852;SDS011;9052;53.494;14.376;2024-03-23T05:29:14;21.67;;;7.13;;
17852;SDS011;9052;53.494;14.376;2024-03-23T05:31:43;17.97;;;7.00;;
17852;SDS011;9052;53.494;14.376;2024-03-23T05:34:09;22.83;;;6.30;;
17852;SDS011;9052;53.494;14.376;2024-03-23T05:36:36;25.30;;;8.10;;
17852;SDS011;9052;53.494;14.376;2024-03-23T05:39:03;30.80;;;9.23;;
17852;SDS011;9052;53.494;14.376;2024-03-23T05:41:30;41.17;;;7.73;;
17852;SDS011;9052;53.494;14.376;2024-03-23T05:43:55;19.83;;;5.30;;
17852;SDS011;9052;53.494;14.376;2024-03-23T05:46:22;20.30;;;5.63;;
17852;SDS011;9052;53.494;14.376;2024-03-23T05:48:49;20.97;;;6.80;;
17852;SDS011;9052;53.494;14.376;2024-03-23T05:51:16;29.60;;;6.90;;
17852;SDS011;9052;53.494;14.376;2024-03-23T05:53:43;36.17;;;6.10;;
17852;SDS011;9052;53.494;14.376;2024-03-23T05:56:09;25.97;;;6.87;;
17852;SDS011;9052;53.494;14.376;2024-03-23T05:58:35;22.73;;;5.37;;
17852;SDS011;9052;53.494;14.376;2024-03-23T06:01:02;20.67;;;4.50;;
17852;SDS011;9052;53.494;14.376;2024-03-23T06:03:29;15.77;;;5.30;;
17852;SDS011;9052;53.494;14.376;2024-03-23T06:05:57;28.17;;;3.80;;
17852;SDS011;9052;53.494;14.376;2024-03-23T06:08:23;8.07;;;3.17;;
17852;SDS011;9052;53.494;14.376;2024-03-23T06:10:50;16.20;;;4.50;;
17852;SDS011;9052;53.494;14.376;2024-03-23T06:13:16;8.47;;;3.17;;
17852;SDS011;9052;53.494;14.376;2024-03-23T06:15:45;19.97;;;4.40;;
17852;SDS011;9052;53.494;14.376;2024-03-23T06:18:11;21.47;;;3.60;;
17852;SDS011;9052;53.494;14.376;2024-03-23T06:20:38;9.27;;;3.00;;
17852;SDS011;9052;53.494;14.376;2024-03-23T06:23:06;12.13;;;3.93;;
17852;SDS011;9052;53.494;14.376;2024-03-23T06:25:32;9.60;;;3.90;;
17852;SDS011;9052;53.494;14.376;2024-03-23T06:27:58;14.43;;;4.40;;
17852;SDS011;9052;53.494;14.376;2024-03-23T06:30:26;16.53;;;3.80;;
17852;SDS011;9052;53.494;14.376;2024-03-23T06:32:52;9.40;;;3.93;;
17852;SDS011;9052;53.494;14.376;2024-03-23T06:35:20;21.53;;;4.43;;
17852;SDS011;9052;53.494;14.376;2024-03-23T06:37:45;21.53;;;4.30;;
17852;SDS011;9052;53.494;14.376;2024-03-23T06:40:14;14.73;;;2.73;;
17852;SDS011;9052;53.494;14.376;2024-03-23T06:42:40;15.73;;;4.47;;
17852;SDS011;9052;53.494;14.376;2024-03-23T06:45:07;24.17;;;4.37;;
17852;SDS011;9052;53.494;14.376;2024-03-23T06:47:33;15.33;;;3.67;;
17852;SDS011;9052;53.494;14.376;2024-03-23T06:50:01;15.33;;;2.70;;
17852;SDS011;9052;53.494;14.376;2024-03-23T06:52:27;8.23;;;3.30;;
17852;SDS011;9052;53.494;14.376;2024-03-23T06:54:54;11.00;;;3.57;;
17852;SDS011;9052;53.494;14.376;2024-03-23T06:57:23;13.13;;;4.77;;
17852;SDS011;9052;53.494;14.376;2024-03-23T06:59:50;22.07;;;4.13;;
17852;SDS011;9052;53.494;14.376;2024-03-23T07:02:17;10.10;;;4.40;;
17852;SDS011;9052;53.494;14.376;2024-03-23T07:04:43;21.37;;;5.10;;
17852;SDS011;9052;53.494;14.376;2024-03-23T07:07:10;18.20;;;4.47;;
17852;SDS011;9052;53.494;14.376;2024-03-23T07:09:36;20.83;;;4.37;;
17852;SDS011;9052;53.494;14.376;2024-03-23T07:12:04;23.93;;;5.30;;
17852;SDS011;9052;53.494;14.376;2024-03-23T07:14:31;16.43;;;4.87;;
17852;SDS011;9052;53.494;14.376;2024-03-23T07:16:58;19.63;;;4.27;;
17852;SDS011;9052;53.494;14.376;2024-03-23T07:19:24;13.40;;;4.57;;
17852;SDS011;9052;53.494;14.376;2024-03-23T07:21:52;20.10;;;5.03;;
17852;SDS011;9052;53.494;14.376;2024-03-23T07:24:18;21.80;;;5.50;;
17852;SDS011;9052;53.494;14.376;2024-03-23T07:26:45;17.73;;;4.53;;
17852;SDS011;9052;53.494;14.376;2024-03-23T07:29:11;12.83;;;5.43;;
17852;SDS011;9052;53.494;14.376;2024-03-23T07:31:39;17.03;;;4.23;;
17852;SDS011;9052;53.494;14.376;2024-03-23T07:34:05;19.37;;;5.13;;
17852;SDS011;9052;53.494;14.376;2024-03-23T07:36:32;14.60;;;5.10;;
17852;SDS011;9052;53.494;14.376;2024-03-23T07:38:58;19.13;;;4.53;;
17852;SDS011;9052;53.494;14.376;2024-03-23T07:41:25;28.43;;;5.07;;
17852;SDS011;9052;53.494;14.376;2024-03-23T07:43:53;26.97;;;4.70;;
17852;SDS011;9052;53.494;14.376;2024-03-23T07:46:20;19.63;;;4.83;;
17852;SDS011;9052;53.494;14.376;2024-03-23T07:48:47;24.93;;;5.27;;
17852;SDS011;9052;53.494;14.376;2024-03-23T07:51:16;29.10;;;4.43;;
17852;SDS011;9052;53.494;14.376;2024-03-23T07:53:43;17.73;;;5.20;;
17852;SDS011;9052;53.494;14.376;2024-03-23T07:56:10;20.57;;;4.30;;
17852;SDS011;9052;53.494;14.376;2024-03-23T07:58:36;27.77;;;6.40;;
17852;SDS011;9052;53.494;14.376;2024-03-23T08:01:04;14.80;;;4.50;;
17852;SDS011;9052;53.494;14.376;2024-03-23T08:03:30;24.93;;;5.73;;
17852;SDS011;9052;53.494;14.376;2024-03-23T08:05:59;17.63;;;4.90;;
17852;SDS011;9052;53.494;14.376;2024-03-23T08:08:32;33.03;;;5.27;;
17852;SDS011;9052;53.494;14.376;2024-03-23T08:10:59;17.33;;;5.00;;
17852;SDS011;9052;53.494;14.376;2024-03-23T08:13:28;9.90;;;4.30;;
17852;SDS011;9052;53.494;14.376;2024-03-23T08:15:58;18.23;;;4.80;;
17852;SDS011;9052;53.494;14.376;2024-03-23T08:18:25;21.40;;;5.37;;
17852;SDS011;9052;53.494;14.376;2024-03-23T08:20:55;20.20;;;7.13;;
17852;SDS011;9052;53.494;14.376;2024-03-23T08:23:24;17.37;;;4.57;;
17852;SDS011;9052;53.494;14.376;2024-03-23T08:25:51;27.67;;;5.67;;
17852;SDS011;9052;53.494;14.376;2024-03-23T08:28:17;9.63;;;3.90;;
17852;SDS011;9052;53.494;14.376;2024-03-23T08:30:44;21.10;;;5.60;;
17852;SDS011;9052;53.494;14.376;2024-03-23T08:33:10;21.53;;;3.57;;
17852;SDS011;9052;53.494;14.376;2024-03-23T08:35:38;20.57;;;6.03;;
17852;SDS011;9052;53.494;14.376;2024-03-23T08:38:04;21.60;;;5.60;;
17852;SDS011;9052;53.494;14.376;2024-03-23T08:40:32;20.90;;;5.20;;
17852;SDS011;9052;53.494;14.376;2024-03-23T08:42:58;9.87;;;4.70;;
17852;SDS011;9052;53.494;14.376;2024-03-23T08:45:25;34.53;;;5.17;;
17852;SDS011;9052;53.494;14.376;2024-03-23T08:47:51;24.40;;;5.03;;
17852;SDS011;9052;53.494;14.376;2024-03-23T08:50:18;18.23;;;5.70;;
17852;SDS011;9052;53.494;14.376;2024-03-23T08:52:44;36.43;;;5.60;;
17852;SDS011;9052;53.494;14.376;2024-03-23T08:55:11;23.67;;;5.30;;
17852;SDS011;9052;53.494;14.376;2024-03-23T08:57:38;21.43;;;5.53;;
17852;SDS011;9052;53.494;14.376;2024-03-23T09:00:06;15.83;;;4.10;;
17852;SDS011;9052;53.494;14.376;2024-03-23T09:02:34;23.37;;;6.23;;
17852;SDS011;9052;53.494;14.376;2024-03-23T09:05:01;14.40;;;4.10;;
17852;SDS011;9052;53.494;14.376;2024-03-23T09:07:32;48.77;;;6.60;;
17852;SDS011;9052;53.494;14.376;2024-03-23T09:10:04;27.07;;;5.93;;
17852;SDS011;9052;53.494;14.376;2024-03-23T09:12:30;23.80;;;5.27;;
17852;SDS011;9052;53.494;14.376;2024-03-23T09:15:01;24.70;;;5.20;;
17852;SDS011;9052;53.494;14.376;2024-03-23T09:17:27;19.27;;;4.23;;
17852;SDS011;9052;53.494;14.376;2024-03-23T09:19:54;24.87;;;5.10;;
17852;SDS011;9052;53.494;14.376;2024-03-23T09:22:20;21.13;;;5.20;;
17852;SDS011;9052;53.494;14.376;2024-03-23T09:24:47;18.27;;;5.80;;
17852;SDS011;9052;53.494;14.376;2024-03-23T09:27:13;19.10;;;5.93;;
17852;SDS011;9052;53.494;14.376;2024-03-23T09:29:40;23.43;;;5.60;;
17852;SDS011;9052;53.494;14.376;2024-03-23T09:32:07;18.67;;;6.00;;
17852;SDS011;9052;53.494;14.376;2024-03-23T09:34:34;19.10;;;5.03;;
17852;SDS011;9052;53.494;14.376;2024-03-23T09:37:00;25.50;;;6.20;;
17852;SDS011;9052;53.494;14.376;2024-03-23T09:39:27;43.03;;;5.40;;
17852;SDS011;9052;53.494;14.376;2024-03-23T09:41:56;21.73;;;4.50;;
17852;SDS011;9052;53.494;14.376;2024-03-23T09:44:23;41.57;;;6.70;;
17852;SDS011;9052;53.494;14.376;2024-03-23T09:46:51;15.20;;;4.80;;
17852;SDS011;9052;53.494;14.376;2024-03-23T09:49:19;33.23;;;6.03;;
17852;SDS011;9052;53.494;14.376;2024-03-23T09:51:45;34.23;;;6.17;;
17852;SDS011;9052;53.494;14.376;2024-03-23T09:54:12;23.93;;;5.13;;
17852;SDS011;9052;53.494;14.376;2024-03-23T09:56:38;24.10;;;6.00;;
17852;SDS011;9052;53.494;14.376;2024-03-23T09:59:05;28.73;;;5.80;;
17852;SDS011;9052;53.494;14.376;2024-03-23T10:01:31;32.53;;;4.43;;
17852;SDS011;9052;53.494;14.376;2024-03-23T10:03:58;15.67;;;4.10;;
17852;SDS011;9052;53.494;14.376;2024-03-23T10:06:26;21.30;;;7.00;;
17852;SDS011;9052;53.494;14.376;2024-03-23T10:08:52;21.97;;;4.40;;
17852;SDS011;9052;53.494;14.376;2024-03-23T10:11:20;15.60;;;4.93;;
17852;SDS011;9052;53.494;14.376;2024-03-23T10:13:47;23.27;;;4.53;;
17852;SDS011;9052;53.494;14.376;2024-03-23T10:16:20;11.30;;;4.10;;
17852;SDS011;9052;53.494;14.376;2024-03-23T10:18:48;12.03;;;4.73;;
17852;SDS011;9052;53.494;14.376;2024-03-23T10:21:15;15.60;;;3.70;;
17852;SDS011;9052;53.494;14.376;2024-03-23T10:23:44;18.63;;;5.33;;
17852;SDS011;9052;53.494;14.376;2024-03-23T10:26:15;21.37;;;3.87;;
17852;SDS011;9052;53.494;14.376;2024-03-23T10:28:52;27.47;;;4.30;;
17852;SDS011;9052;53.494;14.376;2024-03-23T10:31:22;14.33;;;4.10;;
17852;SDS011;9052;53.494;14.376;2024-03-23T10:33:48;23.87;;;3.60;;
17852;SDS011;9052;53.494;14.376;2024-03-23T10:36:15;25.83;;;4.40;;
17852;SDS011;9052;53.494;14.376;2024-03-23T10:38:42;17.80;;;4.57;;
17852;SDS011;9052;53.494;14.376;2024-03-23T10:41:11;10.80;;;3.90;;
17852;SDS011;9052;53.494;14.376;2024-03-23T10:43:36;15.80;;;3.80;;
17852;SDS011;9052;53.494;14.376;2024-03-23T10:46:04;23.13;;;5.10;;
17852;SDS011;9052;53.494;14.376;2024-03-23T10:48:31;16.87;;;4.17;;
17852;SDS011;9052;53.494;14.376;2024-03-23T10:50:58;11.47;;;4.53;;
17852;SDS011;9052;53.494;14.376;2024-03-23T10:53:25;22.00;;;4.60;;
17852;SDS011;9052;53.494;14.376;2024-03-23T10:55:55;24.93;;;4.37;;
17852;SDS011;9052;53.494;14.376;2024-03-23T10:58:23;14.40;;;4.13;;
17852;SDS011;9052;53.494;14.376;2024-03-23T11:00:51;23.97;;;4.70;;
17852;SDS011;9052;53.494;14.376;2024-03-23T11:06:11;19.03;;;4.83;;
17852;SDS011;9052;53.494;14.376;2024-03-23T11:09:00;11.97;;;3.47;;
17852;SDS011;9052;53.494;14.376;2024-03-23T11:11:28;9.70;;;3.17;;
17852;SDS011;9052;53.494;14.376;2024-03-23T11:13:57;17.57;;;3.13;;
17852;SDS011;9052;53.494;14.376;2024-03-23T11:16:24;11.80;;;3.00;;
17852;SDS011;9052;53.494;14.376;2024-03-23T11:18:53;17.47;;;4.07;;
17852;SDS011;9052;53.494;14.376;2024-03-23T11:24:18;12.37;;;4.13;;
17852;SDS011;9052;53.494;14.376;2024-03-23T11:26:47;9.03;;;3.70;;
17852;SDS011;9052;53.494;14.376;2024-03-23T11:29:13;20.97;;;4.67;;
17852;SDS011;9052;53.494;14.376;2024-03-23T11:31:45;26.07;;;5.30;;
17852;SDS011;9052;53.494;14.376;2024-03-23T11:34:11;14.70;;;4.30;;
17852;SDS011;9052;53.494;14.376;2024-03-23T11:36:38;14.97;;;4.53;;
17852;SDS011;9052;53.494;14.376;2024-03-23T11:39:11;13.50;;;4.47;;
17852;SDS011;9052;53.494;14.376;2024-03-23T11:41:48;19.43;;;4.70;;
17852;SDS011;9052;53.494;14.376;2024-03-23T11:44:16;12.63;;;4.50;;
17852;SDS011;9052;53.494;14.376;2024-03-23T11:46:43;14.83;;;4.20;;
17852;SDS011;9052;53.494;14.376;2024-03-23T11:49:19;32.53;;;5.70;;
17852;SDS011;9052;53.494;14.376;2024-03-23T11:51:48;20.27;;;4.37;;
17852;SDS011;9052;53.494;14.376;2024-03-23T11:54:14;11.40;;;3.80;;
17852;SDS011;9052;53.494;14.376;2024-03-23T11:56:54;17.63;;;3.27;;
17852;SDS011;9052;53.494;14.376;2024-03-23T11:59:31;22.27;;;4.00;;
17852;SDS011;9052;53.494;14.376;2024-03-23T12:01:58;10.10;;;4.47;;
17852;SDS011;9052;53.494;14.376;2024-03-23T12:04:25;22.70;;;5.10;;
17852;SDS011;9052;53.494;14.376;2024-03-23T12:09:34;20.27;;;3.70;;
17852;SDS011;9052;53.494;14.376;2024-03-23T12:12:07;14.47;;;4.40;;
17852;SDS011;9052;53.494;14.376;2024-03-23T12:14:36;6.03;;;3.00;;
17852;SDS011;9052;53.494;14.376;2024-03-23T12:17:10;13.87;;;4.40;;
17852;SDS011;9052;53.494;14.376;2024-03-23T12:19:36;16.53;;;4.20;;
17852;SDS011;9052;53.494;14.376;2024-03-23T12:22:04;19.43;;;3.80;;
17852;SDS011;9052;53.494;14.376;2024-03-23T12:24:30;15.70;;;3.50;;
17852;SDS011;9052;53.494;14.376;2024-03-23T12:26:59;17.20;;;3.43;;
17852;SDS011;9052;53.494;14.376;2024-03-23T12:29:28;8.23;;;3.03;;
17852;SDS011;9052;53.494;14.376;2024-03-23T12:31:56;11.90;;;3.20;;
17852;SDS011;9052;53.494;14.376;2024-03-23T12:34:24;9.47;;;3.07;;
17852;SDS011;9052;53.494;14.376;2024-03-23T12:36:53;11.20;;;2.90;;
17852;SDS011;9052;53.494;14.376;2024-03-23T12:39:19;8.67;;;3.00;;
17852;SDS011;9052;53.494;14.376;2024-03-23T12:41:47;12.87;;;3.27;;
17852;SDS011;9052;53.494;14.376;2024-03-23T12:44:13;15.43;;;3.87;;
17852;SDS011;9052;53.494;14.376;2024-03-23T12:46:42;14.93;;;4.17;;
17852;SDS011;9052;53.494;14.376;2024-03-23T12:49:08;10.13;;;3.30;;
17852;SDS011;9052;53.494;14.376;2024-03-23T12:51:35;10.60;;;4.50;;
17852;SDS011;9052;53.494;14.376;2024-03-23T12:54:01;9.60;;;3.53;;
17852;SDS011;9052;53.494;14.376;2024-03-23T12:56:28;14.30;;;4.00;;
17852;SDS011;9052;53.494;14.376;2024-03-23T12:58:54;12.60;;;4.13;;
17852;SDS011;9052;53.494;14.376;2024-03-23T13:01:22;14.17;;;2.13;;
17852;SDS011;9052;53.494;14.376;2024-03-23T13:03:50;15.40;;;3.63;;
17852;SDS011;9052;53.494;14.376;2024-03-23T13:06:17;11.90;;;3.23;;
17852;SDS011;9052;53.494;14.376;2024-03-23T13:08:43;7.47;;;2.47;;
17852;SDS011;9052;53.494;14.376;2024-03-23T13:11:11;9.87;;;3.47;;
17852;SDS011;9052;53.494;14.376;2024-03-23T13:13:36;5.63;;;2.40;;
17852;SDS011;9052;53.494;14.376;2024-03-23T13:16:04;9.77;;;2.60;;
17852;SDS011;9052;53.494;14.376;2024-03-23T13:18:31;7.83;;;2.60;;
17852;SDS011;9052;53.494;14.376;2024-03-23T13:20:59;8.90;;;2.63;;
17852;SDS011;9052;53.494;14.376;2024-03-23T13:23:25;17.60;;;2.80;;
17852;SDS011;9052;53.494;14.376;2024-03-23T13:25:52;14.70;;;3.40;;
17852;SDS011;9052;53.494;14.376;2024-03-23T13:28:19;6.30;;;2.80;;
17852;SDS011;9052;53.494;14.376;2024-03-23T13:30:49;26.67;;;2.33;;
17852;SDS011;9052;53.494;14.376;2024-03-23T13:33:16;15.07;;;3.90;;
17852;SDS011;9052;53.494;14.376;2024-03-23T13:35:51;14.10;;;4.00;;
17852;SDS011;9052;53.494;14.376;2024-03-23T13:38:19;16.27;;;3.00;;
17852;SDS011;9052;53.494;14.376;2024-03-23T13:40:50;8.07;;;2.20;;
17852;SDS011;9052;53.494;14.376;2024-03-23T13:43:17;14.50;;;2.97;;
17852;SDS011;9052;53.494;14.376;2024-03-23T13:45:44;10.03;;;2.67;;
17852;SDS011;9052;53.494;14.376;2024-03-23T13:48:10;16.57;;;3.97;;
17852;SDS011;9052;53.494;14.376;2024-03-23T13:50:37;16.80;;;3.27;;
17852;SDS011;9052;53.494;14.376;2024-03-23T13:53:03;13.23;;;3.13;;
17852;SDS011;9052;53.494;14.376;2024-03-23T13:55:32;13.60;;;2.87;;
17852;SDS011;9052;53.494;14.376;2024-03-23T13:57:58;12.50;;;3.93;;
17852;SDS011;9052;53.494;14.376;2024-03-23T14:00:25;10.23;;;2.67;;
17852;SDS011;9052;53.494;14.376;2024-03-23T14:02:51;16.60;;;3.37;;
17852;SDS011;9052;53.494;14.376;2024-03-23T14:05:18;17.03;;;3.93;;
17852;SDS011;9052;53.494;14.376;2024-03-23T14:07:44;22.23;;;4.33;;
17852;SDS011;9052;53.494;14.376;2024-03-23T14:10:11;9.60;;;3.03;;
17852;SDS011;9052;53.494;14.376;2024-03-23T14:12:38;11.40;;;2.83;;
17852;SDS011;9052;53.494;14.376;2024-03-23T14:15:06;11.50;;;3.53;;
17852;SDS011;9052;53.494;14.376;2024-03-23T14:17:34;13.63;;;3.77;;
17852;SDS011;9052;53.494;14.376;2024-03-23T14:20:01;7.00;;;2.47;;
17852;SDS011;9052;53.494;14.376;2024-03-23T14:22:30;8.23;;;3.37;;
17852;SDS011;9052;53.494;14.376;2024-03-23T14:24:57;12.67;;;3.80;;
17852;SDS011;9052;53.494;14.376;2024-03-23T14:27:23;15.97;;;3.80;;
17852;SDS011;9052;53.494;14.376;2024-03-23T14:29:52;13.97;;;2.30;;
17852;SDS011;9052;53.494;14.376;2024-03-23T14:32:18;10.30;;;3.57;;
17852;SDS011;9052;53.494;14.376;2024-03-23T14:34:45;12.57;;;3.20;;
17852;SDS011;9052;53.494;14.376;2024-03-23T14:37:12;7.70;;;2.90;;
17852;SDS011;9052;53.494;14.376;2024-03-23T14:39:41;15.13;;;3.53;;
17852;SDS011;9052;53.494;14.376;2024-03-23T14:42:07;23.10;;;2.67;;
17852;SDS011;9052;53.494;14.376;2024-03-23T14:44:34;7.40;;;2.97;;
17852;SDS011;9052;53.494;14.376;2024-03-23T14:47:02;18.33;;;3.10;;
17852;SDS011;9052;53.494;14.376;2024-03-23T14:49:29;14.67;;;2.17;;
17852;SDS011;9052;53.494;14.376;2024-03-23T14:51:55;24.37;;;3.17;;
17852;SDS011;9052;53.494;14.376;2024-03-23T14:54:22;10.53;;;3.43;;
17852;SDS011;9052;53.494;14.376;2024-03-23T14:56:48;13.07;;;3.70;;
17852;SDS011;9052;53.494;14.376;2024-03-23T14:59:15;11.40;;;2.97;;
17852;SDS011;9052;53.494;14.376;2024-03-23T15:01:41;11.37;;;3.07;;
17852;SDS011;9052;53.494;14.376;2024-03-23T15:04:09;10.57;;;2.60;;
17852;SDS011;9052;53.494;14.376;2024-03-23T15:06:35;26.03;;;3.17;;
17852;SDS011;9052;53.494;14.376;2024-03-23T15:09:04;14.60;;;3.13;;
17852;SDS011;9052;53.494;14.376;2024-03-23T15:11:32;8.20;;;2.27;;
17852;SDS011;9052;53.494;14.376;2024-03-23T15:13:59;10.10;;;2.40;;
17852;SDS011;9052;53.494;14.376;2024-03-23T15:16:25;9.70;;;2.70;;
17852;SDS011;9052;53.494;14.376;2024-03-23T15:18:52;6.63;;;2.20;;
17852;SDS011;9052;53.494;14.376;2024-03-23T15:21:20;2.70;;;1.43;;
17852;SDS011;9052;53.494;14.376;2024-03-23T15:23:47;9.63;;;1.83;;
17852;SDS011;9052;53.494;14.376;2024-03-23T15:26:13;4.50;;;1.37;;
17852;SDS011;9052;53.494;14.376;2024-03-23T15:28:41;2.60;;;1.40;;
17852;SDS011;9052;53.494;14.376;2024-03-23T15:31:18;5.73;;;1.80;;
17852;SDS011;9052;53.494;14.376;2024-03-23T15:33:45;5.50;;;1.93;;
17852;SDS011;9052;53.494;14.376;2024-03-23T15:36:11;1.73;;;0.80;;
17852;SDS011;9052;53.494;14.376;2024-03-23T15:38:40;3.60;;;1.80;;